createdAt,value
2022-10-24T00:02:17.563Z,12.80
2022-10-24T00:04:50.171Z,15.25
2022-10-24T00:07:22.020Z,21.10
2022-10-24T00:09:54.525Z,18.03
2022-10-24T00:12:26.666Z,18.67
2022-10-24T00:14:59.510Z,16.35
2022-10-24T00:17:31.609Z,13.85
2022-10-24T00:20:06.508Z,15.05
2022-10-24T00:22:38.676Z,18.60
2022-10-24T00:25:11.304Z,18.83
2022-10-24T00:27:43.589Z,15.68
2022-10-24T00:30:16.299Z,15.63
2022-10-24T00:32:48.177Z,20.25
2022-10-24T00:35:20.988Z,17.07
2022-10-24T00:37:52.860Z,18.52
2022-10-24T00:40:25.382Z,16.38
2022-10-24T00:42:57.274Z,13.95
2022-10-24T00:45:48.861Z,16.95
2022-10-24T00:48:31.286Z,15.27
2022-10-24T00:51:18.651Z,16.33
2022-10-24T00:56:34.890Z,15.52
2022-10-24T00:59:11.002Z,15.60
2022-10-24T01:01:45.287Z,15.73
2022-10-24T01:04:17.853Z,22.30
2022-10-24T01:06:58.503Z,15.38
2022-10-24T01:09:49.641Z,13.60
2022-10-24T01:12:52.277Z,15.45
2022-10-24T01:15:49.192Z,17.87
2022-10-24T01:18:36.425Z,13.63
2022-10-24T01:21:26.075Z,16.08
2022-10-24T01:24:29.216Z,18.48
2022-10-24T01:27:25.276Z,19.58
2022-10-24T01:30:01.455Z,12.77
2022-10-24T01:32:44.993Z,21.63
2022-10-24T01:35:59.911Z,22.08
2022-10-24T01:38:45.563Z,14.30
2022-10-24T01:41:24.739Z,16.27
2022-10-24T01:44:16.713Z,18.53
2022-10-24T01:47:06.168Z,14.18
2022-10-24T01:49:41.230Z,15.73
2022-10-24T01:52:16.648Z,16.58
2022-10-24T01:54:49.707Z,13.65
2022-10-24T01:57:32.080Z,17.97
2022-10-24T02:00:07.456Z,14.45
2022-10-24T02:02:47.587Z,13.43
2022-10-24T02:05:27.735Z,17.42
2022-10-24T02:08:06.726Z,14.23
2022-10-24T02:10:47.018Z,17.27
2022-10-24T02:13:50.681Z,16.05
2022-10-24T02:16:22.667Z,14.32
2022-10-24T02:18:56.958Z,12.85
2022-10-24T02:21:38.522Z,13.98
2022-10-24T02:24:33.719Z,18.93
2022-10-24T02:27:17.182Z,14.20
2022-10-24T02:29:59.697Z,14.35
2022-10-24T02:32:39.207Z,14.05
2022-10-24T02:35:15.286Z,11.63
2022-10-24T02:37:53.177Z,16.13
2022-10-24T02:40:27.283Z,19.98
2022-10-24T02:43:01.329Z,14.05
2022-10-24T02:45:35.820Z,11.38
2022-10-24T02:48:12.814Z,15.23
2022-10-24T02:50:46.238Z,14.00
2022-10-24T02:53:22.021Z,13.10
2022-10-24T02:55:55.256Z,13.40
2022-10-24T02:58:27.596Z,13.48
2022-10-24T03:00:59.587Z,13.90
2022-10-24T03:03:32.870Z,12.60
2022-10-24T03:06:05.117Z,14.32
2022-10-24T03:08:37.911Z,11.13
2022-10-24T03:11:10.249Z,15.65
2022-10-24T03:13:42.552Z,12.35
2022-10-24T03:16:14.840Z,12.33
2022-10-24T03:18:46.798Z,12.02
2022-10-24T03:21:19.565Z,13.45
2022-10-24T03:23:51.519Z,9.73
2022-10-24T03:26:24.626Z,14.55
2022-10-24T03:28:56.545Z,11.33
2022-10-24T03:31:31.097Z,11.75
2022-10-24T03:36:54.261Z,9.65
2022-10-24T03:39:26.658Z,8.07
2022-10-24T03:41:59.401Z,13.43
2022-10-24T03:44:32.002Z,10.02
2022-10-24T03:47:03.943Z,10.07
2022-10-24T03:49:36.499Z,10.45
2022-10-24T03:52:08.816Z,6.68
2022-10-24T03:54:41.362Z,6.67
2022-10-24T03:57:14.236Z,10.50
2022-10-24T03:59:46.944Z,8.40
2022-10-24T04:02:18.886Z,9.57
2022-10-24T04:04:51.574Z,7.47
2022-10-24T04:07:23.906Z,11.50
2022-10-24T04:09:57.511Z,11.38
2022-10-24T04:12:29.382Z,9.50
2022-10-24T04:15:04.714Z,7.13
2022-10-24T04:17:37.057Z,7.13
2022-10-24T04:20:10.202Z,13.37
2022-10-24T04:22:42.194Z,10.98
2022-10-24T04:25:16.053Z,13.15
2022-10-24T04:27:48.408Z,8.70
2022-10-24T04:30:20.976Z,6.15
2022-10-24T04:32:52.900Z,10.67
2022-10-24T04:35:26.573Z,9.23
2022-10-24T04:37:58.869Z,11.93
2022-10-24T04:40:30.774Z,5.30
2022-10-24T04:43:03.289Z,9.68
2022-10-24T04:45:35.246Z,11.13
2022-10-24T04:48:07.790Z,8.90
2022-10-24T04:50:41.979Z,8.63
2022-10-24T04:56:10.749Z,10.50
2022-10-24T04:58:43.792Z,12.90
2022-10-24T05:01:15.788Z,10.88
2022-10-24T05:03:48.389Z,10.90
2022-10-24T05:06:20.323Z,8.68
2022-10-24T05:08:52.869Z,8.27
2022-10-24T05:11:24.825Z,8.70
2022-10-24T05:13:57.862Z,7.15
2022-10-24T05:16:29.749Z,10.10
2022-10-24T05:19:02.267Z,10.90
2022-10-24T05:21:34.234Z,11.73
2022-10-24T05:24:06.939Z,9.37
2022-10-24T05:26:38.858Z,7.60
2022-10-24T05:29:11.386Z,8.90
2022-10-24T05:31:43.668Z,9.60
2022-10-24T05:34:16.624Z,11.82
2022-10-24T05:36:48.494Z,7.97
2022-10-24T05:39:21.071Z,10.63
2022-10-24T05:41:55.289Z,7.93
2022-10-24T05:44:28.173Z,9.23
2022-10-24T05:47:00.274Z,4.93
2022-10-24T05:49:32.995Z,8.03
2022-10-24T05:52:05.598Z,6.53
2022-10-24T05:54:48.716Z,10.50
2022-10-24T05:57:27.778Z,7.40
2022-10-24T06:00:00.649Z,11.63
2022-10-24T06:02:33.336Z,8.73
2022-10-24T06:05:06.429Z,9.95
2022-10-24T06:07:42.446Z,9.95
2022-10-24T06:10:14.854Z,8.02
2022-10-24T06:12:47.820Z,10.43
2022-10-24T06:15:20.504Z,9.63
2022-10-24T06:17:53.441Z,19.20
2022-10-24T06:20:25.315Z,14.68
2022-10-24T06:22:57.909Z,11.00
2022-10-24T06:25:29.796Z,9.68
2022-10-24T06:28:02.824Z,10.50
2022-10-24T06:30:36.246Z,13.55
2022-10-24T06:33:09.160Z,10.95
2022-10-24T06:35:41.091Z,8.88
2022-10-24T06:38:13.802Z,12.90
2022-10-24T06:40:46.082Z,13.23
2022-10-24T06:43:19.947Z,9.63
2022-10-24T06:45:51.837Z,13.15
2022-10-24T06:48:24.741Z,11.07
2022-10-24T06:50:56.613Z,8.95
2022-10-24T06:53:29.312Z,11.00
2022-10-24T06:56:06.855Z,10.70
2022-10-24T06:58:39.068Z,11.43
2022-10-24T07:01:19.598Z,9.07
2022-10-24T07:03:51.911Z,6.97
2022-10-24T07:06:28.185Z,7.70
2022-10-24T07:09:02.101Z,7.45
2022-10-24T07:11:34.839Z,8.30
2022-10-24T07:14:09.164Z,10.38
2022-10-24T07:16:42.035Z,10.52
2022-10-24T07:19:14.142Z,10.10
2022-10-24T07:21:46.687Z,11.48
2022-10-24T07:24:19.996Z,7.65
2022-10-24T07:26:53.016Z,10.32
2022-10-24T07:29:24.959Z,8.32
2022-10-24T07:31:59.776Z,14.33
2022-10-24T07:34:32.157Z,10.95
2022-10-24T07:37:05.132Z,9.90
2022-10-24T07:39:37.475Z,10.65
2022-10-24T07:42:12.946Z,9.85
2022-10-24T07:44:45.653Z,7.73
2022-10-24T07:47:18.210Z,13.63
2022-10-24T07:49:50.167Z,11.85
2022-10-24T07:52:23.100Z,10.75
2022-10-24T07:54:55.619Z,14.00
2022-10-24T07:57:28.163Z,9.33
2022-10-24T08:00:00.119Z,13.10
2022-10-24T08:02:33.344Z,9.82
2022-10-24T08:05:05.925Z,12.18
2022-10-24T08:07:39.023Z,10.48
2022-10-24T08:10:13.245Z,10.13
2022-10-24T08:12:46.073Z,11.13
2022-10-24T08:15:18.309Z,11.23
2022-10-24T08:17:50.849Z,9.85
2022-10-24T08:20:26.120Z,12.10
2022-10-24T08:22:58.323Z,9.00
2022-10-24T08:25:30.227Z,12.68
2022-10-24T08:28:05.319Z,9.52
2022-10-24T08:30:40.132Z,14.15
2022-10-24T08:33:15.866Z,15.52
2022-10-24T08:35:51.115Z,9.70
2022-10-24T08:38:23.136Z,13.30
2022-10-24T08:40:56.591Z,10.15
2022-10-24T08:43:28.963Z,17.38
2022-10-24T08:46:39.010Z,12.75
2022-10-24T08:49:46.450Z,8.80
2022-10-24T08:52:33.502Z,9.05
2022-10-24T08:55:49.318Z,8.52
2022-10-24T08:58:27.963Z,9.70
2022-10-24T09:01:05.841Z,8.30
2022-10-24T09:03:55.727Z,9.80
2022-10-24T09:06:32.393Z,8.40
2022-10-24T09:09:29.883Z,12.68
2022-10-24T09:12:18.555Z,10.88
2022-10-24T09:14:58.103Z,8.30
2022-10-24T09:17:37.376Z,8.57
2022-10-24T09:20:29.930Z,13.23
2022-10-24T09:23:06.122Z,9.30
2022-10-24T09:25:41.620Z,11.20
2022-10-24T09:28:14.263Z,8.15
2022-10-24T09:30:46.683Z,13.93
2022-10-24T09:33:29.189Z,11.98
2022-10-24T09:36:04.844Z,7.65
2022-10-24T09:38:39.405Z,8.35
2022-10-24T09:41:26.044Z,10.80
2022-10-24T09:44:00.696Z,12.70
2022-10-24T09:46:45.391Z,11.65
2022-10-24T09:49:22.674Z,9.52
2022-10-24T09:52:19.660Z,12.38
2022-10-24T09:55:20.704Z,9.73
2022-10-24T09:57:59.766Z,8.33
2022-10-24T10:00:36.668Z,7.65
2022-10-24T10:03:23.921Z,8.27
2022-10-24T10:05:59.970Z,8.95
2022-10-24T10:08:35.484Z,9.65
2022-10-24T10:11:11.648Z,9.57
2022-10-24T10:13:50.847Z,6.43
2022-10-24T10:16:34.081Z,8.02
2022-10-24T10:19:17.321Z,11.50
2022-10-24T10:22:13.988Z,11.90
2022-10-24T10:24:46.250Z,8.10
2022-10-24T10:27:40.989Z,11.00
2022-10-24T10:30:16.257Z,7.95
2022-10-24T10:33:46.096Z,6.90
2022-10-24T10:36:32.229Z,7.40
2022-10-24T10:39:24.290Z,6.77
2022-10-24T10:42:21.046Z,15.85
2022-10-24T10:45:33.550Z,7.00
2022-10-24T10:48:43.798Z,11.52
2022-10-24T10:51:22.878Z,6.93
2022-10-24T10:54:06.673Z,10.57
2022-10-24T10:57:04.280Z,6.85
2022-10-24T10:59:58.840Z,5.50
2022-10-24T11:03:01.925Z,7.15
2022-10-24T11:06:28.473Z,6.55
2022-10-24T11:09:03.577Z,4.13
2022-10-24T11:11:42.731Z,8.50
2022-10-24T11:14:33.170Z,5.75
2022-10-24T11:17:24.197Z,4.88
2022-10-24T11:20:20.231Z,5.25
2022-10-24T11:23:01.437Z,5.70
2022-10-24T11:25:47.049Z,7.25
2022-10-24T11:28:44.435Z,5.47
2022-10-24T11:31:24.929Z,7.30
2022-10-24T11:34:11.261Z,6.68
2022-10-24T11:37:06.603Z,5.83
2022-10-24T11:39:48.997Z,6.20
2022-10-24T11:42:34.022Z,6.65
2022-10-24T11:45:16.634Z,8.15
2022-10-24T11:48:03.175Z,7.95
2022-10-24T11:51:07.222Z,6.70
2022-10-24T11:53:48.085Z,6.40
2022-10-24T11:56:40.595Z,6.68
2022-10-24T11:59:24.695Z,6.13
2022-10-24T12:02:24.678Z,7.85
2022-10-24T12:05:20.218Z,5.90
2022-10-24T12:08:13.469Z,6.82
2022-10-24T12:11:12.889Z,8.35
2022-10-24T12:14:08.810Z,7.45
2022-10-24T12:17:10.618Z,5.32
2022-10-24T12:19:45.334Z,5.07
2022-10-24T12:25:45.749Z,7.63
2022-10-24T12:28:26.255Z,6.35
2022-10-24T12:31:14.865Z,7.57
2022-10-24T12:34:17.116Z,5.90
2022-10-24T12:37:12.227Z,4.78
2022-10-24T12:39:49.098Z,11.55
2022-10-24T12:42:23.864Z,8.45
2022-10-24T12:45:02.647Z,7.90
2022-10-24T12:47:52.555Z,7.57
2022-10-24T12:50:27.054Z,8.63
2022-10-24T12:53:17.483Z,7.13
2022-10-24T12:55:50.149Z,7.93
2022-10-24T12:58:29.757Z,9.90
2022-10-24T13:01:12.447Z,7.87
2022-10-24T13:04:17.047Z,7.05
2022-10-24T13:07:21.467Z,7.97
2022-10-24T13:10:33.878Z,8.27
2022-10-24T13:13:25.455Z,9.98
2022-10-24T13:16:12.241Z,9.10
2022-10-24T13:19:18.565Z,11.13
2022-10-24T13:21:59.487Z,9.85
2022-10-24T13:24:36.250Z,9.98
2022-10-24T13:27:13.171Z,10.73
2022-10-24T13:29:45.964Z,12.07
2022-10-24T13:32:20.068Z,9.98
2022-10-24T13:35:00.092Z,13.70
2022-10-24T13:37:37.245Z,11.02
2022-10-24T13:40:19.467Z,8.68
2022-10-24T13:42:58.478Z,9.23
2022-10-24T13:45:48.859Z,12.48
2022-10-24T13:48:29.201Z,9.32
2022-10-24T13:51:42.662Z,10.50
2022-10-24T13:54:17.004Z,10.57
2022-10-24T13:56:50.087Z,9.10
2022-10-24T13:59:37.833Z,9.38
2022-10-24T14:02:26.092Z,10.27
2022-10-24T14:05:02.367Z,8.55
2022-10-24T14:07:36.232Z,13.02
2022-10-24T14:10:14.525Z,9.23
2022-10-24T14:12:50.717Z,10.05
2022-10-24T14:15:27.987Z,9.95
2022-10-24T14:18:13.437Z,12.02
2022-10-24T14:20:58.791Z,10.13
2022-10-24T14:23:41.730Z,13.80
2022-10-24T14:26:21.469Z,13.15
2022-10-24T14:29:00.151Z,10.50
2022-10-24T14:31:35.371Z,11.77
2022-10-24T14:34:17.942Z,11.10
2022-10-24T14:36:50.673Z,14.67
2022-10-24T14:39:26.151Z,11.90
2022-10-24T14:42:02.009Z,12.00
2022-10-24T14:44:37.365Z,11.43
2022-10-24T14:47:28.707Z,8.38
2022-10-24T14:50:43.560Z,8.07
2022-10-24T14:53:27.852Z,11.68
2022-10-24T14:56:02.457Z,9.13
2022-10-24T14:58:37.675Z,9.63
2022-10-24T15:01:19.281Z,9.73
2022-10-24T15:04:03.591Z,9.20
2022-10-24T15:06:44.809Z,11.82
2022-10-24T15:09:18.485Z,9.95
2022-10-24T15:12:02.595Z,8.20
2022-10-24T15:14:47.971Z,9.57
2022-10-24T15:17:32.764Z,7.57
2022-10-24T15:20:06.622Z,7.30
2022-10-24T15:22:38.624Z,8.40
2022-10-24T15:25:23.105Z,10.30
2022-10-24T15:27:59.310Z,11.15
2022-10-24T15:30:41.608Z,8.93
2022-10-24T15:33:16.219Z,8.73
2022-10-24T15:35:49.257Z,8.27
2022-10-24T15:38:21.630Z,6.80
2022-10-24T15:40:53.723Z,11.88
2022-10-24T15:43:29.483Z,7.93
2022-10-24T15:46:01.847Z,7.75
2022-10-24T15:48:33.988Z,7.70
2022-10-24T15:51:07.363Z,8.25
2022-10-24T15:53:39.637Z,11.10
2022-10-24T15:56:13.156Z,7.53
2022-10-24T15:58:45.549Z,8.52
2022-10-24T16:02:01.315Z,9.75
2022-10-24T16:04:33.472Z,7.88
2022-10-24T16:07:06.393Z,8.70
2022-10-24T16:09:38.814Z,10.27
2022-10-24T16:12:13.016Z,7.78
2022-10-24T16:14:44.975Z,8.77
2022-10-24T16:17:17.249Z,7.40
2022-10-24T16:19:52.651Z,12.95
2022-10-24T16:22:27.686Z,7.10
2022-10-24T16:24:59.596Z,9.50
2022-10-24T16:27:32.775Z,8.52
2022-10-24T16:30:05.546Z,7.47
2022-10-24T16:32:38.547Z,8.77
2022-10-24T16:35:18.206Z,9.93
2022-10-24T16:37:55.531Z,13.95
2022-10-24T16:40:28.723Z,9.73
2022-10-24T16:43:02.394Z,8.43
2022-10-24T16:45:35.163Z,15.85
2022-10-24T16:48:07.534Z,8.43
2022-10-24T16:50:46.544Z,7.30
2022-10-24T16:53:19.054Z,8.75
2022-10-24T16:55:54.845Z,7.70
2022-10-24T16:58:27.606Z,9.70
2022-10-24T17:01:08.202Z,5.93
2022-10-24T17:03:41.056Z,6.65
2022-10-24T17:06:14.851Z,5.13
2022-10-24T17:08:46.735Z,8.35
2022-10-24T17:11:44.306Z,5.72
2022-10-24T17:14:14.215Z,7.33
2022-10-24T17:16:47.700Z,7.03
2022-10-24T17:19:19.871Z,5.82
2022-10-24T17:21:52.902Z,5.55
2022-10-24T17:24:26.138Z,6.13
2022-10-24T17:26:59.291Z,6.77
2022-10-24T17:29:33.862Z,7.13
2022-10-24T17:32:07.921Z,5.88
2022-10-24T17:34:42.284Z,5.82
2022-10-24T17:37:43.585Z,5.95
2022-10-24T17:40:22.122Z,6.83
2022-10-24T17:42:55.056Z,9.60
2022-10-24T17:45:27.225Z,9.95
2022-10-24T17:47:59.931Z,7.40
2022-10-24T17:50:32.253Z,9.57
2022-10-24T17:53:04.683Z,6.13
2022-10-24T17:55:51.950Z,7.80
2022-10-24T17:58:26.633Z,7.35
2022-10-24T18:01:00.006Z,7.78
2022-10-24T18:03:33.093Z,8.48
2022-10-24T18:06:07.974Z,4.97
2022-10-24T18:08:40.288Z,4.95
2022-10-24T18:11:14.214Z,8.30
2022-10-24T18:13:46.982Z,6.57
2022-10-24T18:16:19.921Z,6.82
2022-10-24T18:18:52.740Z,8.80
2022-10-24T18:21:27.096Z,6.28
2022-10-24T18:23:59.791Z,6.93
2022-10-24T18:26:32.097Z,6.00
2022-10-24T18:29:04.665Z,7.88
2022-10-24T18:31:37.535Z,11.17
2022-10-24T18:34:09.793Z,9.18
2022-10-24T18:36:42.062Z,6.20
2022-10-24T18:39:14.828Z,7.20
2022-10-24T18:41:54.392Z,9.18
2022-10-24T18:44:34.028Z,7.47
2022-10-24T18:49:59.649Z,7.00
2022-10-24T18:52:49.001Z,10.82
2022-10-24T18:55:25.343Z,9.80
2022-10-24T18:57:57.788Z,8.93
2022-10-24T19:00:33.323Z,8.55
2022-10-24T19:03:31.041Z,8.65
2022-10-24T19:06:25.096Z,9.00
2022-10-24T19:08:58.006Z,9.73
2022-10-24T19:11:29.985Z,6.07
2022-10-24T19:14:02.882Z,5.10
2022-10-24T19:16:35.446Z,9.68
2022-10-24T19:19:08.989Z,5.03
2022-10-24T19:21:42.251Z,7.82
2022-10-24T19:24:16.292Z,6.70
2022-10-24T19:26:50.224Z,5.28
2022-10-24T19:29:22.190Z,5.18
2022-10-24T19:31:54.917Z,5.50
2022-10-24T19:34:29.656Z,6.75
2022-10-24T19:37:01.957Z,5.77
2022-10-24T19:39:34.339Z,6.10
2022-10-24T19:42:07.952Z,5.45
2022-10-24T19:44:42.681Z,6.47
2022-10-24T19:47:17.797Z,7.15
2022-10-24T19:49:50.113Z,6.30
2022-10-24T19:52:26.666Z,4.97
2022-10-24T19:54:59.967Z,5.47
2022-10-24T19:57:31.943Z,7.63
2022-10-24T20:00:05.359Z,6.20
2022-10-24T20:02:43.931Z,6.60
2022-10-24T20:05:16.929Z,5.10
2022-10-24T20:07:49.321Z,4.93
2022-10-24T20:12:54.926Z,4.30
2022-10-24T20:15:28.199Z,6.97
2022-10-24T20:18:00.790Z,6.55
2022-10-24T20:20:35.166Z,9.10
2022-10-24T20:23:07.760Z,6.43
2022-10-24T20:25:39.643Z,8.93
2022-10-24T20:28:12.234Z,6.33
2022-10-24T20:30:46.881Z,7.00
2022-10-24T20:33:19.866Z,6.95
2022-10-24T20:35:51.771Z,8.93
2022-10-24T20:38:24.725Z,6.72
2022-10-24T20:41:02.349Z,5.10
2022-10-24T20:43:34.974Z,6.90
2022-10-24T20:46:07.305Z,7.40
2022-10-24T20:48:39.898Z,7.18
2022-10-24T20:51:18.180Z,7.60
2022-10-24T20:53:50.089Z,7.60
2022-10-24T20:56:26.217Z,6.85
2022-10-24T20:58:58.177Z,8.00
2022-10-24T21:01:30.981Z,5.65
2022-10-24T21:04:03.333Z,8.32
2022-10-24T21:06:35.987Z,8.70
2022-10-24T21:09:08.737Z,8.48
2022-10-24T21:11:41.343Z,5.78
2022-10-24T21:14:14.952Z,5.65
2022-10-24T21:16:48.232Z,10.18
2022-10-24T21:19:20.160Z,9.03
2022-10-24T21:21:54.237Z,5.85
2022-10-24T21:25:19.233Z,7.35
2022-10-24T21:27:51.801Z,11.88
2022-10-24T21:30:23.732Z,7.80
2022-10-24T21:32:56.688Z,6.00
2022-10-24T21:35:28.535Z,7.68
2022-10-24T21:38:01.082Z,6.68
2022-10-24T21:40:32.981Z,9.95
2022-10-24T21:43:05.958Z,5.47
2022-10-24T21:45:37.880Z,9.60
2022-10-24T21:48:10.439Z,7.70
2022-10-24T21:50:42.321Z,6.60
2022-10-24T21:53:14.882Z,9.10
2022-10-24T21:55:46.745Z,7.65
2022-10-24T21:58:19.334Z,8.57
2022-10-24T22:00:51.267Z,8.63
2022-10-24T22:03:24.075Z,8.85
2022-10-24T22:05:57.143Z,8.15
2022-10-24T22:08:29.772Z,10.40
2022-10-24T22:11:06.004Z,8.07
2022-10-24T22:13:39.483Z,6.57
2022-10-24T22:16:13.509Z,6.18
2022-10-24T22:18:46.562Z,10.48
2022-10-24T22:21:33.674Z,8.82
2022-10-24T22:24:16.132Z,9.33
2022-10-24T22:26:49.453Z,8.40
2022-10-24T22:29:23.904Z,9.77
2022-10-24T22:31:56.186Z,8.48
2022-10-24T22:34:29.432Z,11.18
2022-10-24T22:37:29.768Z,7.50
2022-10-24T22:40:02.080Z,7.55
2022-10-24T22:42:34.408Z,11.00
2022-10-24T22:45:07.341Z,5.95
2022-10-24T22:48:11.691Z,5.65
2022-10-24T22:50:51.651Z,7.43
2022-10-24T22:53:30.361Z,8.00
2022-10-24T22:56:27.727Z,10.57
2022-10-24T22:59:01.675Z,8.38
2022-10-24T23:01:58.104Z,11.60
2022-10-24T23:04:30.591Z,8.77
2022-10-24T23:07:58.847Z,10.85
2022-10-24T23:10:31.127Z,9.73
2022-10-24T23:13:04.310Z,10.38
2022-10-24T23:15:36.637Z,9.40
2022-10-24T23:18:11.089Z,7.63
2022-10-24T23:20:57.897Z,10.05
2022-10-24T23:23:30.649Z,9.10
2022-10-24T23:26:23.564Z,7.40
2022-10-24T23:29:31.225Z,9.32
2022-10-24T23:32:04.753Z,7.37
2022-10-24T23:34:37.698Z,6.40
2022-10-24T23:37:33.926Z,7.82
2022-10-24T23:40:17.641Z,7.88
2022-10-24T23:42:51.719Z,8.18
2022-10-24T23:45:28.401Z,7.27
2022-10-24T23:48:47.563Z,8.88
2022-10-24T23:51:35.113Z,10.80
2022-10-24T23:54:12.552Z,11.18
2022-10-24T23:56:44.752Z,5.78
2022-10-24T23:59:17.344Z,7.00
